sensor_id;sensor_type;location;lat;lon;timestamp;pressure;altitude;pressure_sealevel;temperature;humidity
47811;BME280;33575;52.600;7.318;2024-02-26T00:00:00;99969.47;;;3.21;95.07
47811;BME280;33575;52.600;7.318;2024-02-26T00:02:30;99974.20;;;3.22;95.85
47811;BME280;33575;52.600;7.318;2024-02-26T00:05:00;99975.42;;;3.22;96.04
47811;BME280;33575;52.600;7.318;2024-02-26T00:07:30;99976.81;;;3.23;96.15
47811;BME280;33575;52.600;7.318;2024-02-26T00:10:01;99975.85;;;3.26;95.96
47811;BME280;33575;52.600;7.318;2024-02-26T00:12:32;99976.13;;;3.29;95.54
47811;BME280;33575;52.600;7.318;2024-02-26T00:15:03;99970.49;;;3.29;95.32
47811;BME280;33575;52.600;7.318;2024-02-26T00:17:33;99975.50;;;3.27;95.80
47811;BME280;33575;52.600;7.318;2024-02-26T00:20:04;99976.93;;;3.28;95.61
47811;BME280;33575;52.600;7.318;2024-02-26T00:22:34;99976.10;;;3.31;95.18
47811;BME280;33575;52.600;7.318;2024-02-26T00:25:04;99972.49;;;3.27;95.26
47811;BME280;33575;52.600;7.318;2024-02-26T00:27:34;99971.24;;;3.26;94.74
47811;BME280;33575;52.600;7.318;2024-02-26T00:30:06;99976.54;;;3.24;94.76
47811;BME280;33575;52.600;7.318;2024-02-26T00:32:35;99977.60;;;3.22;94.15
47811;BME280;33575;52.600;7.318;2024-02-26T00:35:06;99976.73;;;3.19;94.34
47811;BME280;33575;52.600;7.318;2024-02-26T00:37:36;99978.89;;;3.19;95.11
47811;BME280;33575;52.600;7.318;2024-02-26T00:40:07;99977.03;;;3.20;94.86
47811;BME280;33575;52.600;7.318;2024-02-26T00:42:37;99977.34;;;3.19;94.24
47811;BME280;33575;52.600;7.318;2024-02-26T00:45:08;99980.63;;;3.17;94.21
47811;BME280;33575;52.600;7.318;2024-02-26T00:47:38;99982.80;;;3.16;93.85
47811;BME280;33575;52.600;7.318;2024-02-26T00:50:09;99986.84;;;3.09;94.44
47811;BME280;33575;52.600;7.318;2024-02-26T00:52:40;99986.80;;;3.07;94.44
47811;BME280;33575;52.600;7.318;2024-02-26T00:55:10;99986.83;;;3.04;94.47
47811;BME280;33575;52.600;7.318;2024-02-26T00:57:40;99990.17;;;3.03;94.37
47811;BME280;33575;52.600;7.318;2024-02-26T01:00:12;99989.46;;;3.02;94.81
47811;BME280;33575;52.600;7.318;2024-02-26T01:02:41;99991.99;;;2.96;95.04
47811;BME280;33575;52.600;7.318;2024-02-26T01:05:12;99991.58;;;2.90;95.31
47811;BME280;33575;52.600;7.318;2024-02-26T01:07:43;99993.16;;;2.86;95.35
47811;BME280;33575;52.600;7.318;2024-02-26T01:10:13;99991.99;;;2.82;95.65
47811;BME280;33575;52.600;7.318;2024-02-26T01:12:43;99987.77;;;2.79;95.72
47811;BME280;33575;52.600;7.318;2024-02-26T01:15:14;99987.39;;;2.77;95.69
47811;BME280;33575;52.600;7.318;2024-02-26T01:17:43;99987.96;;;2.69;95.63
47811;BME280;33575;52.600;7.318;2024-02-26T01:20:13;99989.98;;;2.66;96.57
47811;BME280;33575;52.600;7.318;2024-02-26T01:22:43;99988.25;;;2.62;96.24
47811;BME280;33575;52.600;7.318;2024-02-26T01:25:14;99987.34;;;2.58;96.03
47811;BME280;33575;52.600;7.318;2024-02-26T01:27:44;99990.84;;;2.58;96.37
47811;BME280;33575;52.600;7.318;2024-02-26T01:30:15;99993.11;;;2.61;96.16
47811;BME280;33575;52.600;7.318;2024-02-26T01:32:45;99992.76;;;2.63;95.90
47811;BME280;33575;52.600;7.318;2024-02-26T01:35:15;99993.34;;;2.63;95.90
47811;BME280;33575;52.600;7.318;2024-02-26T01:37:45;99993.18;;;2.64;96.28
47811;BME280;33575;52.600;7.318;2024-02-26T01:40:16;99999.05;;;2.67;95.88
47811;BME280;33575;52.600;7.318;2024-02-26T01:42:46;100000.09;;;2.70;96.22
47811;BME280;33575;52.600;7.318;2024-02-26T01:45:17;100000.01;;;2.73;95.62
47811;BME280;33575;52.600;7.318;2024-02-26T01:47:50;100002.19;;;2.70;95.80
47811;BME280;33575;52.600;7.318;2024-02-26T01:50:18;100002.74;;;2.66;95.77
47811;BME280;33575;52.600;7.318;2024-02-26T01:52:49;100004.10;;;2.63;95.77
47811;BME280;33575;52.600;7.318;2024-02-26T01:55:19;100003.51;;;2.61;96.38
47811;BME280;33575;52.600;7.318;2024-02-26T01:57:50;100002.04;;;2.57;96.92
47811;BME280;33575;52.600;7.318;2024-02-26T02:00:21;99995.63;;;2.53;96.83
47811;BME280;33575;52.600;7.318;2024-02-26T02:02:50;99994.58;;;2.45;97.31
47811;BME280;33575;52.600;7.318;2024-02-26T02:05:21;99990.96;;;2.41;97.41
47811;BME280;33575;52.600;7.318;2024-02-26T02:07:51;99989.77;;;2.39;97.39
47811;BME280;33575;52.600;7.318;2024-02-26T02:10:20;99988.04;;;2.32;97.25
47811;BME280;33575;52.600;7.318;2024-02-26T02:12:51;99989.80;;;2.29;97.03
47811;BME280;33575;52.600;7.318;2024-02-26T02:15:21;99987.17;;;2.26;97.08
47811;BME280;33575;52.600;7.318;2024-02-26T02:17:52;99992.18;;;2.19;97.28
47811;BME280;33575;52.600;7.318;2024-02-26T02:20:24;99993.28;;;2.20;97.42
47811;BME280;33575;52.600;7.318;2024-02-26T02:22:53;99991.55;;;2.19;97.16
47811;BME280;33575;52.600;7.318;2024-02-26T02:25:23;99991.79;;;2.16;97.62
47811;BME280;33575;52.600;7.318;2024-02-26T02:27:54;99990.67;;;2.16;97.11
47811;BME280;33575;52.600;7.318;2024-02-26T02:30:27;99994.77;;;2.14;97.47
47811;BME280;33575;52.600;7.318;2024-02-26T02:32:57;99993.10;;;2.14;97.76
47811;BME280;33575;52.600;7.318;2024-02-26T02:35:27;99989.98;;;2.14;97.53
47811;BME280;33575;52.600;7.318;2024-02-26T02:37:57;99994.19;;;2.16;97.72
47811;BME280;33575;52.600;7.318;2024-02-26T02:40:27;100001.79;;;2.16;97.41
47811;BME280;33575;52.600;7.318;2024-02-26T02:42:58;100008.07;;;2.15;97.51
47811;BME280;33575;52.600;7.318;2024-02-26T02:45:28;100012.50;;;2.12;98.05
47811;BME280;33575;52.600;7.318;2024-02-26T02:47:59;100016.93;;;2.10;97.60
47811;BME280;33575;52.600;7.318;2024-02-26T02:50:29;100026.43;;;2.10;97.66
47811;BME280;33575;52.600;7.318;2024-02-26T02:53:00;100029.31;;;2.13;97.45
47811;BME280;33575;52.600;7.318;2024-02-26T02:55:31;100032.03;;;2.14;97.55
47811;BME280;33575;52.600;7.318;2024-02-26T02:58:01;100033.63;;;2.11;97.58
47811;BME280;33575;52.600;7.318;2024-02-26T03:00:32;100033.76;;;2.12;97.55
47811;BME280;33575;52.600;7.318;2024-02-26T03:03:03;100035.59;;;2.16;97.72
47811;BME280;33575;52.600;7.318;2024-02-26T03:05:32;100038.16;;;2.21;97.67
47811;BME280;33575;52.600;7.318;2024-02-26T03:08:03;100036.17;;;2.23;97.92
47811;BME280;33575;52.600;7.318;2024-02-26T03:10:33;100033.82;;;2.28;97.07
47811;BME280;33575;52.600;7.318;2024-02-26T03:13:04;100034.85;;;2.29;97.39
47811;BME280;33575;52.600;7.318;2024-02-26T03:15:34;100037.34;;;2.28;97.08
47811;BME280;33575;52.600;7.318;2024-02-26T03:18:05;100045.71;;;2.27;97.26
47811;BME280;33575;52.600;7.318;2024-02-26T03:20:35;100052.22;;;2.30;97.94
47811;BME280;33575;52.600;7.318;2024-02-26T03:23:05;100054.35;;;2.35;97.32
47811;BME280;33575;52.600;7.318;2024-02-26T03:25:35;100053.84;;;2.36;97.06
47811;BME280;33575;52.600;7.318;2024-02-26T03:28:06;100056.27;;;2.37;96.82
47811;BME280;33575;52.600;7.318;2024-02-26T03:30:35;100057.72;;;2.39;97.25
47811;BME280;33575;52.600;7.318;2024-02-26T03:33:06;100065.31;;;2.42;96.78
47811;BME280;33575;52.600;7.318;2024-02-26T03:35:36;100070.36;;;2.39;96.89
47811;BME280;33575;52.600;7.318;2024-02-26T03:38:06;100073.05;;;2.37;97.36
47811;BME280;33575;52.600;7.318;2024-02-26T03:40:37;100075.41;;;2.31;97.06
47811;BME280;33575;52.600;7.318;2024-02-26T03:43:08;100069.17;;;2.27;97.10
47811;BME280;33575;52.600;7.318;2024-02-26T03:45:38;100069.46;;;2.23;98.26
47811;BME280;33575;52.600;7.318;2024-02-26T03:48:09;100070.76;;;2.26;97.85
47811;BME280;33575;52.600;7.318;2024-02-26T03:50:39;100067.06;;;2.22;98.35
47811;BME280;33575;52.600;7.318;2024-02-26T03:53:12;100069.77;;;2.21;98.30
47811;BME280;33575;52.600;7.318;2024-02-26T03:55:39;100068.92;;;2.20;98.59
47811;BME280;33575;52.600;7.318;2024-02-26T03:58:12;100067.69;;;2.15;98.72
47811;BME280;33575;52.600;7.318;2024-02-26T04:00:42;100071.53;;;2.17;98.49
47811;BME280;33575;52.600;7.318;2024-02-26T04:03:11;100077.52;;;2.18;98.99
47811;BME280;33575;52.600;7.318;2024-02-26T04:05:42;100084.12;;;2.19;99.15
47811;BME280;33575;52.600;7.318;2024-02-26T04:08:12;100089.28;;;2.21;98.86
47811;BME280;33575;52.600;7.318;2024-02-26T04:10:42;100090.10;;;2.23;99.02
47811;BME280;33575;52.600;7.318;2024-02-26T04:13:12;100089.53;;;2.27;98.27
47811;BME280;33575;52.600;7.318;2024-02-26T04:15:43;100093.78;;;2.27;98.12
47811;BME280;33575;52.600;7.318;2024-02-26T04:18:14;100099.88;;;2.31;98.16
47811;BME280;33575;52.600;7.318;2024-02-26T04:20:44;100099.75;;;2.28;98.92
47811;BME280;33575;52.600;7.318;2024-02-26T04:23:15;100103.64;;;2.30;98.56
47811;BME280;33575;52.600;7.318;2024-02-26T04:25:46;100104.80;;;2.30;98.57
47811;BME280;33575;52.600;7.318;2024-02-26T04:28:16;100109.62;;;2.32;98.31
47811;BME280;33575;52.600;7.318;2024-02-26T04:30:47;100113.36;;;2.30;98.94
47811;BME280;33575;52.600;7.318;2024-02-26T04:33:18;100110.35;;;2.25;99.70
47811;BME280;33575;52.600;7.318;2024-02-26T04:35:48;100116.34;;;2.33;99.04
47811;BME280;33575;52.600;7.318;2024-02-26T04:38:18;100116.74;;;2.34;99.38
47811;BME280;33575;52.600;7.318;2024-02-26T04:40:49;100120.01;;;2.37;99.18
47811;BME280;33575;52.600;7.318;2024-02-26T04:43:18;100124.80;;;2.38;98.80
47811;BME280;33575;52.600;7.318;2024-02-26T04:45:49;100126.88;;;2.40;98.75
47811;BME280;33575;52.600;7.318;2024-02-26T04:48:20;100129.86;;;2.38;98.96
47811;BME280;33575;52.600;7.318;2024-02-26T04:50:51;100131.94;;;2.39;99.49
47811;BME280;33575;52.600;7.318;2024-02-26T04:53:21;100135.35;;;2.39;99.62
47811;BME280;33575;52.600;7.318;2024-02-26T04:55:52;100133.87;;;2.41;99.77
47811;BME280;33575;52.600;7.318;2024-02-26T04:58:22;100135.48;;;2.40;100.00
47811;BME280;33575;52.600;7.318;2024-02-26T05:00:53;100137.87;;;2.48;100.00
47811;BME280;33575;52.600;7.318;2024-02-26T05:03:23;100143.48;;;2.70;100.00
47811;BME280;33575;52.600;7.318;2024-02-26T05:05:54;100140.03;;;2.49;100.00
47811;BME280;33575;52.600;7.318;2024-02-26T05:08:24;100138.93;;;2.43;100.00
47811;BME280;33575;52.600;7.318;2024-02-26T05:10:55;100142.99;;;2.36;100.00
47811;BME280;33575;52.600;7.318;2024-02-26T05:13:26;100144.09;;;2.26;100.00
47811;BME280;33575;52.600;7.318;2024-02-26T05:15:55;100144.22;;;2.27;100.00
47811;BME280;33575;52.600;7.318;2024-02-26T05:18:27;100140.72;;;2.22;100.00
47811;BME280;33575;52.600;7.318;2024-02-26T05:20:57;100140.86;;;2.19;100.00
47811;BME280;33575;52.600;7.318;2024-02-26T05:23:27;100144.71;;;2.17;100.00
47811;BME280;33575;52.600;7.318;2024-02-26T05:25:57;100144.88;;;2.09;100.00
47811;BME280;33575;52.600;7.318;2024-02-26T05:28:28;100145.32;;;2.10;100.00
47811;BME280;33575;52.600;7.318;2024-02-26T05:30:58;100146.75;;;2.15;100.00
47811;BME280;33575;52.600;7.318;2024-02-26T05:33:29;100147.87;;;2.26;100.00
47811;BME280;33575;52.600;7.318;2024-02-26T05:36:00;100148.69;;;2.32;100.00
47811;BME280;33575;52.600;7.318;2024-02-26T05:38:30;100149.50;;;2.42;100.00
47811;BME280;33575;52.600;7.318;2024-02-26T05:41:01;100154.60;;;2.50;100.00
47811;BME280;33575;52.600;7.318;2024-02-26T05:43:31;100153.94;;;2.55;100.00
47811;BME280;33575;52.600;7.318;2024-02-26T05:46:01;100159.77;;;2.52;100.00
47811;BME280;33575;52.600;7.318;2024-02-26T05:48:31;100158.95;;;2.53;100.00
47811;BME280;33575;52.600;7.318;2024-02-26T05:51:01;100159.17;;;2.60;100.00
47811;BME280;33575;52.600;7.318;2024-02-26T05:53:31;100165.18;;;2.62;100.00
47811;BME280;33575;52.600;7.318;2024-02-26T05:56:02;100170.28;;;2.65;100.00
47811;BME280;33575;52.600;7.318;2024-02-26T05:58:32;100175.51;;;2.69;100.00
47811;BME280;33575;52.600;7.318;2024-02-26T06:01:03;100179.17;;;2.69;99.86
47811;BME280;33575;52.600;7.318;2024-02-26T06:03:33;100181.26;;;2.68;100.00
47811;BME280;33575;52.600;7.318;2024-02-26T06:06:04;100182.63;;;2.71;99.86
47811;BME280;33575;52.600;7.318;2024-02-26T06:08:33;100184.03;;;2.73;100.00
47811;BME280;33575;52.600;7.318;2024-02-26T06:11:05;100190.80;;;2.76;99.85
47811;BME280;33575;52.600;7.318;2024-02-26T06:13:34;100199.14;;;2.74;100.00
47811;BME280;33575;52.600;7.318;2024-02-26T06:16:05;100204.21;;;2.74;99.35
47811;BME280;33575;52.600;7.318;2024-02-26T06:18:35;100203.88;;;2.75;99.82
47811;BME280;33575;52.600;7.318;2024-02-26T06:21:09;100206.84;;;2.76;99.66
47811;BME280;33575;52.600;7.318;2024-02-26T06:23:36;100210.63;;;2.76;99.56
47811;BME280;33575;52.600;7.318;2024-02-26T06:26:06;100213.53;;;2.78;99.72
47811;BME280;33575;52.600;7.318;2024-02-26T06:28:38;100220.22;;;2.78;99.45
47811;BME280;33575;52.600;7.318;2024-02-26T06:31:08;100221.89;;;2.74;100.00
47811;BME280;33575;52.600;7.318;2024-02-26T06:33:38;100223.27;;;2.73;99.99
47811;BME280;33575;52.600;7.318;2024-02-26T06:36:08;100223.40;;;2.74;99.69
47811;BME280;33575;52.600;7.318;2024-02-26T06:38:39;100221.86;;;2.77;99.93
47811;BME280;33575;52.600;7.318;2024-02-26T06:41:10;100228.38;;;2.70;100.00
47811;BME280;33575;52.600;7.318;2024-02-26T06:43:41;100232.12;;;2.69;100.00
47811;BME280;33575;52.600;7.318;2024-02-26T06:46:11;100235.95;;;2.71;100.00
47811;BME280;33575;52.600;7.318;2024-02-26T06:48:41;100237.01;;;2.75;100.00
47811;BME280;33575;52.600;7.318;2024-02-26T06:51:11;100240.79;;;2.77;100.00
47811;BME280;33575;52.600;7.318;2024-02-26T06:53:42;100237.24;;;2.71;100.00
47811;BME280;33575;52.600;7.318;2024-02-26T06:56:12;100239.68;;;2.75;100.00
47811;BME280;33575;52.600;7.318;2024-02-26T06:58:43;100243.25;;;2.78;99.78
47811;BME280;33575;52.600;7.318;2024-02-26T07:01:13;100243.93;;;2.78;100.00
47811;BME280;33575;52.600;7.318;2024-02-26T07:03:44;100244.92;;;2.73;100.00
47811;BME280;33575;52.600;7.318;2024-02-26T07:06:14;100246.46;;;2.79;99.87
47811;BME280;33575;52.600;7.318;2024-02-26T07:08:44;100250.24;;;2.81;100.00
47811;BME280;33575;52.600;7.318;2024-02-26T07:11:15;100252.61;;;2.79;100.00
47811;BME280;33575;52.600;7.318;2024-02-26T07:13:46;100257.34;;;2.81;100.00
47811;BME280;33575;52.600;7.318;2024-02-26T07:16:16;100261.10;;;2.83;100.00
47811;BME280;33575;52.600;7.318;2024-02-26T07:18:47;100266.08;;;2.80;100.00
47811;BME280;33575;52.600;7.318;2024-02-26T07:21:18;100271.10;;;2.86;99.94
47811;BME280;33575;52.600;7.318;2024-02-26T07:23:48;100270.47;;;2.91;99.68
47811;BME280;33575;52.600;7.318;2024-02-26T07:26:19;100271.56;;;2.89;100.00
47811;BME280;33575;52.600;7.318;2024-02-26T07:28:49;100270.51;;;2.90;100.00
47811;BME280;33575;52.600;7.318;2024-02-26T07:31:20;100274.98;;;2.89;100.00
47811;BME280;33575;52.600;7.318;2024-02-26T07:33:50;100274.35;;;2.89;100.00
47811;BME280;33575;52.600;7.318;2024-02-26T07:36:21;100275.55;;;2.88;100.00
47811;BME280;33575;52.600;7.318;2024-02-26T07:38:51;100278.58;;;2.94;100.00
47811;BME280;33575;52.600;7.318;2024-02-26T07:41:21;100275.94;;;2.90;100.00
47811;BME280;33575;52.600;7.318;2024-02-26T07:43:52;100275.30;;;2.85;100.00
47811;BME280;33575;52.600;7.318;2024-02-26T07:46:22;100277.42;;;2.97;100.00
47811;BME280;33575;52.600;7.318;2024-02-26T07:48:53;100279.45;;;2.98;100.00
47811;BME280;33575;52.600;7.318;2024-02-26T07:51:23;100285.04;;;2.90;100.00
47811;BME280;33575;52.600;7.318;2024-02-26T07:53:53;100285.84;;;2.97;100.00
47811;BME280;33575;52.600;7.318;2024-02-26T07:56:24;100283.74;;;2.83;100.00
47811;BME280;33575;52.600;7.318;2024-02-26T07:58:54;100283.15;;;2.83;100.00
47811;BME280;33575;52.600;7.318;2024-02-26T08:01:24;100286.49;;;2.93;100.00
47811;BME280;33575;52.600;7.318;2024-02-26T08:03:55;100287.46;;;2.99;100.00
47811;BME280;33575;52.600;7.318;2024-02-26T08:06:25;100287.81;;;3.00;100.00
47811;BME280;33575;52.600;7.318;2024-02-26T08:08:56;100288.59;;;2.94;100.00
47811;BME280;33575;52.600;7.318;2024-02-26T08:11:26;100286.23;;;2.85;100.00
47811;BME280;33575;52.600;7.318;2024-02-26T08:13:57;100288.54;;;2.79;100.00
47811;BME280;33575;52.600;7.318;2024-02-26T08:16:29;100294.35;;;2.87;100.00
47811;BME280;33575;52.600;7.318;2024-02-26T08:18:58;100303.47;;;2.79;100.00
47811;BME280;33575;52.600;7.318;2024-02-26T08:21:28;100305.53;;;2.87;100.00
47811;BME280;33575;52.600;7.318;2024-02-26T08:23:58;100309.13;;;2.93;100.00
47811;BME280;33575;52.600;7.318;2024-02-26T08:26:29;100309.73;;;2.98;100.00
47811;BME280;33575;52.600;7.318;2024-02-26T08:28:59;100313.52;;;2.88;100.00
47811;BME280;33575;52.600;7.318;2024-02-26T08:31:30;100316.56;;;2.91;100.00
47811;BME280;33575;52.600;7.318;2024-02-26T08:34:01;100316.38;;;2.98;100.00
47811;BME280;33575;52.600;7.318;2024-02-26T08:36:33;100320.68;;;2.95;100.00
47811;BME280;33575;52.600;7.318;2024-02-26T08:39:02;100324.22;;;2.97;100.00
47811;BME280;33575;52.600;7.318;2024-02-26T08:41:32;100322.64;;;3.16;100.00
47811;BME280;33575;52.600;7.318;2024-02-26T08:44:02;100324.69;;;3.10;100.00
47811;BME280;33575;52.600;7.318;2024-02-26T08:46:33;100323.35;;;3.16;100.00
47811;BME280;33575;52.600;7.318;2024-02-26T08:49:03;100328.96;;;3.13;100.00
47811;BME280;33575;52.600;7.318;2024-02-26T08:51:33;100329.91;;;3.24;100.00
47811;BME280;33575;52.600;7.318;2024-02-26T08:54:03;100333.17;;;3.12;100.00
47811;BME280;33575;52.600;7.318;2024-02-26T08:56:33;100337.60;;;3.11;100.00
47811;BME280;33575;52.600;7.318;2024-02-26T08:59:04;100341.21;;;3.24;100.00
47811;BME280;33575;52.600;7.318;2024-02-26T09:01:35;100341.30;;;3.16;100.00
47811;BME280;33575;52.600;7.318;2024-02-26T09:04:05;100346.36;;;3.18;100.00
47811;BME280;33575;52.600;7.318;2024-02-26T09:06:35;100346.69;;;3.24;100.00
47811;BME280;33575;52.600;7.318;2024-02-26T09:09:05;100348.73;;;3.30;100.00
47811;BME280;33575;52.600;7.318;2024-02-26T09:11:36;100352.17;;;3.27;100.00
47811;BME280;33575;52.600;7.318;2024-02-26T09:14:07;100356.26;;;3.16;100.00
47811;BME280;33575;52.600;7.318;2024-02-26T09:16:38;100355.59;;;3.30;100.00
47811;BME280;33575;52.600;7.318;2024-02-26T09:19:08;100358.39;;;3.28;100.00
47811;BME280;33575;52.600;7.318;2024-02-26T09:21:42;100362.32;;;3.33;100.00
47811;BME280;33575;52.600;7.318;2024-02-26T09:24:08;100366.24;;;3.28;100.00
47811;BME280;33575;52.600;7.318;2024-02-26T09:26:39;100366.02;;;3.23;100.00
47811;BME280;33575;52.600;7.318;2024-02-26T09:29:09;100368.99;;;3.39;100.00
47811;BME280;33575;52.600;7.318;2024-02-26T09:31:39;100369.93;;;3.28;100.00
47811;BME280;33575;52.600;7.318;2024-02-26T09:34:09;100373.78;;;3.25;100.00
47811;BME280;33575;52.600;7.318;2024-02-26T09:36:39;100385.16;;;3.42;100.00
47811;BME280;33575;52.600;7.318;2024-02-26T09:39:10;100382.91;;;3.33;100.00
47811;BME280;33575;52.600;7.318;2024-02-26T09:41:40;100385.47;;;3.34;100.00
47811;BME280;33575;52.600;7.318;2024-02-26T09:44:11;100380.03;;;3.25;100.00
47811;BME280;33575;52.600;7.318;2024-02-26T09:46:42;100391.57;;;3.30;100.00
47811;BME280;33575;52.600;7.318;2024-02-26T09:49:12;100390.59;;;3.36;100.00
47811;BME280;33575;52.600;7.318;2024-02-26T09:51:42;100398.98;;;3.41;100.00
47811;BME280;33575;52.600;7.318;2024-02-26T09:54:14;100403.21;;;3.47;100.00
47811;BME280;33575;52.600;7.318;2024-02-26T09:56:50;100403.73;;;3.41;100.00
47811;BME280;33575;52.600;7.318;2024-02-26T09:59:17;100407.60;;;3.44;100.00
47811;BME280;33575;52.600;7.318;2024-02-26T10:01:45;100412.31;;;3.28;100.00
47811;BME280;33575;52.600;7.318;2024-02-26T10:04:16;100415.67;;;3.41;100.00
47811;BME280;33575;52.600;7.318;2024-02-26T10:06:47;100418.90;;;3.52;100.00
47811;BME280;33575;52.600;7.318;2024-02-26T10:09:17;100421.29;;;3.53;100.00
47811;BME280;33575;52.600;7.318;2024-02-26T10:11:47;100420.72;;;3.42;100.00
47811;BME280;33575;52.600;7.318;2024-02-26T10:14:18;100430.08;;;3.35;100.00
47811;BME280;33575;52.600;7.318;2024-02-26T10:16:50;100429.29;;;3.48;100.00
47811;BME280;33575;52.600;7.318;2024-02-26T10:19:25;100430.08;;;3.33;100.00
47811;BME280;33575;52.600;7.318;2024-02-26T10:21:55;100434.58;;;3.46;100.00
47811;BME280;33575;52.600;7.318;2024-02-26T10:24:21;100437.83;;;3.61;100.00
47811;BME280;33575;52.600;7.318;2024-02-26T10:26:52;100443.05;;;3.67;100.00
47811;BME280;33575;52.600;7.318;2024-02-26T10:29:24;100445.01;;;3.69;100.00
47811;BME280;33575;52.600;7.318;2024-02-26T10:31:52;100448.74;;;3.77;100.00
47811;BME280;33575;52.600;7.318;2024-02-26T10:34:23;100453.83;;;3.78;100.00
47811;BME280;33575;52.600;7.318;2024-02-26T10:36:55;100459.55;;;3.78;100.00
47811;BME280;33575;52.600;7.318;2024-02-26T10:39:24;100465.35;;;3.84;100.00
47811;BME280;33575;52.600;7.318;2024-02-26T10:41:55;100473.31;;;3.88;99.96
47811;BME280;33575;52.600;7.318;2024-02-26T10:44:25;100474.26;;;3.91;99.79
47811;BME280;33575;52.600;7.318;2024-02-26T10:46:55;100479.78;;;3.98;99.78
47811;BME280;33575;52.600;7.318;2024-02-26T10:49:26;100479.96;;;4.04;99.84
47811;BME280;33575;52.600;7.318;2024-02-26T10:51:56;100476.82;;;3.87;100.00
47811;BME280;33575;52.600;7.318;2024-02-26T10:54:27;100484.95;;;3.96;100.00
47811;BME280;33575;52.600;7.318;2024-02-26T10:56:57;100489.94;;;4.06;100.00
47811;BME280;33575;52.600;7.318;2024-02-26T10:59:27;100495.12;;;3.87;100.00
47811;BME280;33575;52.600;7.318;2024-02-26T11:01:59;100498.73;;;4.01;100.00
47811;BME280;33575;52.600;7.318;2024-02-26T11:04:29;100504.98;;;4.23;100.00
47811;BME280;33575;52.600;7.318;2024-02-26T11:06:59;100501.96;;;4.51;100.00
47811;BME280;33575;52.600;7.318;2024-02-26T11:09:29;100507.60;;;4.35;100.00
47811;BME280;33575;52.600;7.318;2024-02-26T11:12:00;100506.51;;;4.44;99.78
47811;BME280;33575;52.600;7.318;2024-02-26T11:14:30;100509.27;;;4.42;99.73
47811;BME280;33575;52.600;7.318;2024-02-26T11:17:01;100517.23;;;4.47;100.00
47811;BME280;33575;52.600;7.318;2024-02-26T11:19:33;100514.81;;;4.45;99.44
47811;BME280;33575;52.600;7.318;2024-02-26T11:22:07;100514.68;;;4.55;98.29
47811;BME280;33575;52.600;7.318;2024-02-26T11:24:32;100510.97;;;4.52;98.86
47811;BME280;33575;52.600;7.318;2024-02-26T11:27:04;100510.19;;;4.55;99.21
47811;BME280;33575;52.600;7.318;2024-02-26T11:29:35;100507.01;;;4.53;98.79
47811;BME280;33575;52.600;7.318;2024-02-26T11:32:03;100503.09;;;4.66;97.84
47811;BME280;33575;52.600;7.318;2024-02-26T11:34:33;100502.24;;;4.61;99.40
47811;BME280;33575;52.600;7.318;2024-02-26T11:37:10;100503.90;;;4.76;99.46
47811;BME280;33575;52.600;7.318;2024-02-26T11:39:34;100504.05;;;4.74;99.29
47811;BME280;33575;52.600;7.318;2024-02-26T11:42:06;100506.75;;;4.70;98.28
47811;BME280;33575;52.600;7.318;2024-02-26T11:44:35;100511.51;;;4.85;99.09
47811;BME280;33575;52.600;7.318;2024-02-26T11:47:10;100514.21;;;4.82;97.99
47811;BME280;33575;52.600;7.318;2024-02-26T11:49:36;100517.31;;;4.75;98.36
47811;BME280;33575;52.600;7.318;2024-02-26T11:52:08;100517.00;;;4.97;97.79
47811;BME280;33575;52.600;7.318;2024-02-26T11:54:39;100515.04;;;5.05;96.90
47811;BME280;33575;52.600;7.318;2024-02-26T11:59:38;100516.75;;;5.06;97.93
47811;BME280;33575;52.600;7.318;2024-02-26T12:02:08;100514.79;;;5.10;97.51
47811;BME280;33575;52.600;7.318;2024-02-26T12:04:39;100513.00;;;5.16;96.96
47811;BME280;33575;52.600;7.318;2024-02-26T12:07:12;100513.31;;;4.97;96.11
47811;BME280;33575;52.600;7.318;2024-02-26T12:09:41;100516.10;;;4.81;94.97
47811;BME280;33575;52.600;7.318;2024-02-26T12:12:18;100515.91;;;4.91;95.52
47811;BME280;33575;52.600;7.318;2024-02-26T12:14:50;100515.48;;;4.89;96.06
47811;BME280;33575;52.600;7.318;2024-02-26T12:17:20;100517.99;;;4.77;98.64
47811;BME280;33575;52.600;7.318;2024-02-26T12:19:45;100516.68;;;4.87;98.21
47811;BME280;33575;52.600;7.318;2024-02-26T12:22:13;100516.21;;;4.80;98.24
47811;BME280;33575;52.600;7.318;2024-02-26T12:24:43;100520.38;;;4.93;97.02
47811;BME280;33575;52.600;7.318;2024-02-26T12:27:14;100525.21;;;4.87;96.25
47811;BME280;33575;52.600;7.318;2024-02-26T12:29:44;100523.68;;;4.93;93.95
47811;BME280;33575;52.600;7.318;2024-02-26T12:32:15;100525.41;;;5.02;94.82
47811;BME280;33575;52.600;7.318;2024-02-26T12:34:46;100526.78;;;4.96;94.90
47811;BME280;33575;52.600;7.318;2024-02-26T12:37:16;100529.08;;;4.80;95.12
47811;BME280;33575;52.600;7.318;2024-02-26T12:39:46;100530.20;;;4.81;96.44
47811;BME280;33575;52.600;7.318;2024-02-26T12:42:16;100533.30;;;4.74;96.15
47811;BME280;33575;52.600;7.318;2024-02-26T12:44:49;100537.06;;;4.92;96.13
47811;BME280;33575;52.600;7.318;2024-02-26T12:47:18;100539.18;;;4.76;97.22
47811;BME280;33575;52.600;7.318;2024-02-26T12:49:49;100543.33;;;4.67;97.10
47811;BME280;33575;52.600;7.318;2024-02-26T12:52:19;100544.34;;;4.94;96.92
47811;BME280;33575;52.600;7.318;2024-02-26T12:54:50;100553.86;;;4.92;96.92
47811;BME280;33575;52.600;7.318;2024-02-26T12:57:21;100555.63;;;4.78;97.05
47811;BME280;33575;52.600;7.318;2024-02-26T12:59:51;100559.78;;;4.77;97.01
47811;BME280;33575;52.600;7.318;2024-02-26T13:02:21;100566.14;;;4.79;96.88
47811;BME280;33575;52.600;7.318;2024-02-26T13:04:52;100567.21;;;4.98;96.66
47811;BME280;33575;52.600;7.318;2024-02-26T13:07:22;100571.16;;;4.93;96.88
47811;BME280;33575;52.600;7.318;2024-02-26T13:09:52;100575.74;;;4.99;96.77
47811;BME280;33575;52.600;7.318;2024-02-26T13:12:23;100579.04;;;4.91;96.20
47811;BME280;33575;52.600;7.318;2024-02-26T13:14:59;100581.33;;;4.90;96.20